Ebenezer, Pennsylvania
Current Conditions -  °F | °C
As of 6:26 AM on Tuesday 21 Oct 2014 (Local Time) from KMUI Reporting Station
Moderate Fog Moderate Fog  
Wind Chill: 48°   Ceiling: 10000
Heat Index: 48°   Visibility: 0.25mi
Dew Point: 48°   Wind: 0mph
Humidity: 100%   Direction: NA
Pressure: 29.86"   Gusts: NA
Location:  40.2957°N, 76.4189°W
Report Text: KMUI 211026Z AUTO 00000KT 1/4SM FG FEW070 BKN100 09/09 A2986 RMK AO2 RVRNO $
Loading
Personal Weather Stations






























Interactive Weather Map New forecast layout! Learn more

10-Day Weather Forecast

Advertisements
Track Severe Weather on mobile